sensor_id;sensor_type;location;lat;lon;timestamp;P1;durP1;ratioP1;P2;durP2;ratioP2
40072;SDS011;25774;52.256;9.356;2022-09-12T00:00:21;11.57;;;5.97;;
40072;SDS011;25774;52.256;9.356;2022-09-12T00:02:50;16.98;;;6.20;;
40072;SDS011;25774;52.256;9.356;2022-09-12T00:05:16;12.65;;;5.68;;
40072;SDS011;25774;52.256;9.356;2022-09-12T00:07:42;10.48;;;5.25;;
40072;SDS011;25774;52.256;9.356;2022-09-12T00:10:07;17.73;;;5.57;;
40072;SDS011;25774;52.256;9.356;2022-09-12T00:12:32;14.00;;;5.18;;
40072;SDS011;25774;52.256;9.356;2022-09-12T00:14:58;13.37;;;5.53;;
40072;SDS011;25774;52.256;9.356;2022-09-12T00:17:23;9.53;;;5.83;;
40072;SDS011;25774;52.256;9.356;2022-09-12T00:19:49;13.43;;;5.37;;
40072;SDS011;25774;52.256;9.356;2022-09-12T00:22:14;9.13;;;4.83;;
40072;SDS011;25774;52.256;9.356;2022-09-12T00:24:41;9.10;;;5.67;;
40072;SDS011;25774;52.256;9.356;2022-09-12T00:29:31;10.73;;;6.30;;
40072;SDS011;25774;52.256;9.356;2022-09-12T00:31:57;13.00;;;7.07;;
40072;SDS011;25774;52.256;9.356;2022-09-12T00:34:22;15.20;;;6.40;;
40072;SDS011;25774;52.256;9.356;2022-09-12T00:36:47;15.43;;;6.43;;
40072;SDS011;25774;52.256;9.356;2022-09-12T00:39:16;21.30;;;7.43;;
40072;SDS011;25774;52.256;9.356;2022-09-12T00:41:41;14.85;;;7.72;;
40072;SDS011;25774;52.256;9.356;2022-09-12T00:52:14;14.07;;;6.32;;
40072;SDS011;25774;52.256;9.356;2022-09-12T00:54:46;11.05;;;6.50;;
40072;SDS011;25774;52.256;9.356;2022-09-12T00:57:13;17.13;;;6.18;;
40072;SDS011;25774;52.256;9.356;2022-09-12T00:59:41;16.17;;;7.40;;
40072;SDS011;25774;52.256;9.356;2022-09-12T01:02:11;15.10;;;6.32;;
40072;SDS011;25774;52.256;9.356;2022-09-12T01:04:37;14.57;;;5.93;;
40072;SDS011;25774;52.256;9.356;2022-09-12T01:07:05;19.13;;;6.43;;
40072;SDS011;25774;52.256;9.356;2022-09-12T01:09:32;13.48;;;6.95;;
40072;SDS011;25774;52.256;9.356;2022-09-12T01:11:58;15.63;;;7.70;;
40072;SDS011;25774;52.256;9.356;2022-09-12T01:14:26;12.32;;;7.07;;
40072;SDS011;25774;52.256;9.356;2022-09-12T01:16:52;11.32;;;6.72;;
40072;SDS011;25774;52.256;9.356;2022-09-12T01:25:29;14.50;;;7.97;;
40072;SDS011;25774;52.256;9.356;2022-09-12T01:31:00;15.50;;;7.60;;
40072;SDS011;25774;52.256;9.356;2022-09-12T01:33:43;19.88;;;6.82;;
40072;SDS011;25774;52.256;9.356;2022-09-12T01:36:42;11.50;;;6.57;;
40072;SDS011;25774;52.256;9.356;2022-09-12T01:39:35;10.43;;;5.50;;
40072;SDS011;25774;52.256;9.356;2022-09-12T01:42:09;12.05;;;5.88;;
40072;SDS011;25774;52.256;9.356;2022-09-12T01:44:54;12.85;;;6.45;;
40072;SDS011;25774;52.256;9.356;2022-09-12T01:50:08;12.60;;;6.55;;
40072;SDS011;25774;52.256;9.356;2022-09-12T01:52:42;16.80;;;6.20;;
40072;SDS011;25774;52.256;9.356;2022-09-12T01:55:10;10.80;;;5.47;;
40072;SDS011;25774;52.256;9.356;2022-09-12T01:57:42;11.40;;;5.57;;
40072;SDS011;25774;52.256;9.356;2022-09-12T02:00:14;9.98;;;6.03;;
40072;SDS011;25774;52.256;9.356;2022-09-12T02:02:56;9.55;;;5.85;;
40072;SDS011;25774;52.256;9.356;2022-09-12T02:05:31;12.57;;;6.82;;
40072;SDS011;25774;52.256;9.356;2022-09-12T02:08:07;11.70;;;6.72;;
40072;SDS011;25774;52.256;9.356;2022-09-12T02:10:35;13.30;;;7.13;;
40072;SDS011;25774;52.256;9.356;2022-09-12T02:13:15;8.93;;;6.00;;
40072;SDS011;25774;52.256;9.356;2022-09-12T02:15:49;13.23;;;6.20;;
40072;SDS011;25774;52.256;9.356;2022-09-12T02:18:19;12.52;;;6.40;;
40072;SDS011;25774;52.256;9.356;2022-09-12T02:20:46;13.00;;;6.40;;
40072;SDS011;25774;52.256;9.356;2022-09-12T02:23:19;13.63;;;5.43;;
40072;SDS011;25774;52.256;9.356;2022-09-12T02:25:47;10.80;;;6.40;;
40072;SDS011;25774;52.256;9.356;2022-09-12T02:28:22;21.67;;;6.88;;
40072;SDS011;25774;52.256;9.356;2022-09-12T02:33:28;14.35;;;5.80;;
40072;SDS011;25774;52.256;9.356;2022-09-12T02:36:02;19.83;;;7.20;;
40072;SDS011;25774;52.256;9.356;2022-09-12T02:38:46;10.07;;;5.82;;
40072;SDS011;25774;52.256;9.356;2022-09-12T02:41:13;9.77;;;5.85;;
40072;SDS011;25774;52.256;9.356;2022-09-12T02:43:41;8.25;;;5.68;;
40072;SDS011;25774;52.256;9.356;2022-09-12T02:46:09;9.97;;;5.70;;
40072;SDS011;25774;52.256;9.356;2022-09-12T02:48:40;12.68;;;6.63;;
40072;SDS011;25774;52.256;9.356;2022-09-12T02:51:08;12.07;;;6.20;;
40072;SDS011;25774;52.256;9.356;2022-09-12T02:53:34;10.02;;;5.85;;
40072;SDS011;25774;52.256;9.356;2022-09-12T02:58:28;13.52;;;6.10;;
40072;SDS011;25774;52.256;9.356;2022-09-12T03:06:11;14.65;;;6.45;;
40072;SDS011;25774;52.256;9.356;2022-09-12T03:11:37;14.23;;;5.82;;
40072;SDS011;25774;52.256;9.356;2022-09-12T03:19:46;11.18;;;6.60;;
40072;SDS011;25774;52.256;9.356;2022-09-12T03:24:56;16.45;;;7.05;;
40072;SDS011;25774;52.256;9.356;2022-09-12T03:27:36;11.13;;;6.05;;
40072;SDS011;25774;52.256;9.356;2022-09-12T03:30:05;14.23;;;6.68;;
40072;SDS011;25774;52.256;9.356;2022-09-12T03:32:42;10.30;;;6.25;;
40072;SDS011;25774;52.256;9.356;2022-09-12T03:35:13;15.93;;;5.85;;
40072;SDS011;25774;52.256;9.356;2022-09-12T03:37:41;14.75;;;7.40;;
40072;SDS011;25774;52.256;9.356;2022-09-12T03:40:07;12.73;;;6.55;;
40072;SDS011;25774;52.256;9.356;2022-09-12T03:42:34;11.18;;;6.75;;
40072;SDS011;25774;52.256;9.356;2022-09-12T03:44:59;15.27;;;5.77;;
40072;SDS011;25774;52.256;9.356;2022-09-12T03:47:26;19.93;;;7.13;;
40072;SDS011;25774;52.256;9.356;2022-09-12T03:49:51;12.25;;;6.53;;
40072;SDS011;25774;52.256;9.356;2022-09-12T03:52:17;12.43;;;5.90;;
40072;SDS011;25774;52.256;9.356;2022-09-12T03:54:42;8.77;;;5.38;;
40072;SDS011;25774;52.256;9.356;2022-09-12T03:57:08;10.27;;;5.70;;
40072;SDS011;25774;52.256;9.356;2022-09-12T03:59:33;10.73;;;5.60;;
40072;SDS011;25774;52.256;9.356;2022-09-12T04:02:00;11.77;;;4.87;;
40072;SDS011;25774;52.256;9.356;2022-09-12T04:04:25;12.55;;;5.97;;
40072;SDS011;25774;52.256;9.356;2022-09-12T04:06:51;8.63;;;5.90;;
40072;SDS011;25774;52.256;9.356;2022-09-12T04:09:16;10.00;;;5.93;;
40072;SDS011;25774;52.256;9.356;2022-09-12T04:11:41;8.60;;;5.00;;
40072;SDS011;25774;52.256;9.356;2022-09-12T04:14:07;15.73;;;6.00;;
40072;SDS011;25774;52.256;9.356;2022-09-12T04:16:32;10.13;;;5.90;;
40072;SDS011;25774;52.256;9.356;2022-09-12T04:18:58;11.37;;;5.63;;
40072;SDS011;25774;52.256;9.356;2022-09-12T04:21:23;10.17;;;6.27;;
40072;SDS011;25774;52.256;9.356;2022-09-12T04:23:49;9.02;;;5.45;;
40072;SDS011;25774;52.256;9.356;2022-09-12T04:26:15;14.00;;;6.25;;
40072;SDS011;25774;52.256;9.356;2022-09-12T04:28:42;11.77;;;5.93;;
40072;SDS011;25774;52.256;9.356;2022-09-12T04:31:09;13.25;;;6.18;;
40072;SDS011;25774;52.256;9.356;2022-09-12T04:33:38;14.02;;;6.18;;
40072;SDS011;25774;52.256;9.356;2022-09-12T04:36:06;11.02;;;6.63;;
40072;SDS011;25774;52.256;9.356;2022-09-12T04:38:35;12.18;;;6.30;;
40072;SDS011;25774;52.256;9.356;2022-09-12T04:43:55;10.45;;;6.22;;
40072;SDS011;25774;52.256;9.356;2022-09-12T04:46:23;12.55;;;6.65;;
40072;SDS011;25774;52.256;9.356;2022-09-12T04:51:16;13.68;;;7.43;;
40072;SDS011;25774;52.256;9.356;2022-09-12T04:53:46;12.57;;;7.07;;
40072;SDS011;25774;52.256;9.356;2022-09-12T04:56:15;12.40;;;7.28;;
40072;SDS011;25774;52.256;9.356;2022-09-12T04:58:41;14.13;;;7.22;;
40072;SDS011;25774;52.256;9.356;2022-09-12T05:01:11;13.47;;;6.63;;
40072;SDS011;25774;52.256;9.356;2022-09-12T05:03:39;13.63;;;6.72;;
40072;SDS011;25774;52.256;9.356;2022-09-12T05:06:08;9.43;;;5.88;;
40072;SDS011;25774;52.256;9.356;2022-09-12T05:08:36;13.57;;;7.28;;
40072;SDS011;25774;52.256;9.356;2022-09-12T05:11:02;11.98;;;7.00;;
40072;SDS011;25774;52.256;9.356;2022-09-12T05:13:35;11.65;;;7.13;;
40072;SDS011;25774;52.256;9.356;2022-09-12T05:16:02;12.25;;;6.88;;
40072;SDS011;25774;52.256;9.356;2022-09-12T05:18:30;14.30;;;6.65;;
40072;SDS011;25774;52.256;9.356;2022-09-12T05:20:57;12.60;;;7.22;;
40072;SDS011;25774;52.256;9.356;2022-09-12T05:23:24;17.13;;;8.35;;
40072;SDS011;25774;52.256;9.356;2022-09-12T05:25:52;19.63;;;7.10;;
40072;SDS011;25774;52.256;9.356;2022-09-12T05:28:21;14.68;;;7.18;;
40072;SDS011;25774;52.256;9.356;2022-09-12T05:30:47;15.10;;;8.07;;
40072;SDS011;25774;52.256;9.356;2022-09-12T05:33:13;14.30;;;8.38;;
40072;SDS011;25774;52.256;9.356;2022-09-12T05:35:39;12.15;;;7.82;;
40072;SDS011;25774;52.256;9.356;2022-09-12T05:38:06;13.60;;;7.45;;
40072;SDS011;25774;52.256;9.356;2022-09-12T05:42:58;14.48;;;6.82;;
40072;SDS011;25774;52.256;9.356;2022-09-12T05:45:23;12.20;;;6.97;;
40072;SDS011;25774;52.256;9.356;2022-09-12T05:47:48;13.93;;;6.83;;
40072;SDS011;25774;52.256;9.356;2022-09-12T05:50:14;12.40;;;8.50;;
40072;SDS011;25774;52.256;9.356;2022-09-12T05:52:39;15.27;;;7.35;;
40072;SDS011;25774;52.256;9.356;2022-09-12T05:55:06;17.17;;;8.20;;
40072;SDS011;25774;52.256;9.356;2022-09-12T05:57:31;16.58;;;6.95;;
40072;SDS011;25774;52.256;9.356;2022-09-12T05:59:58;18.00;;;7.20;;
40072;SDS011;25774;52.256;9.356;2022-09-12T06:04:49;13.82;;;6.40;;
40072;SDS011;25774;52.256;9.356;2022-09-12T06:07:14;11.73;;;6.67;;
40072;SDS011;25774;52.256;9.356;2022-09-12T06:09:40;13.67;;;6.80;;
40072;SDS011;25774;52.256;9.356;2022-09-12T06:12:06;13.93;;;8.07;;
40072;SDS011;25774;52.256;9.356;2022-09-12T06:14:32;12.98;;;7.40;;
40072;SDS011;25774;52.256;9.356;2022-09-12T06:16:58;11.77;;;6.95;;
40072;SDS011;25774;52.256;9.356;2022-09-12T06:19:24;12.87;;;7.03;;
40072;SDS011;25774;52.256;9.356;2022-09-12T06:21:52;23.33;;;7.72;;
40072;SDS011;25774;52.256;9.356;2022-09-12T06:24:19;17.83;;;8.48;;
40072;SDS011;25774;52.256;9.356;2022-09-12T06:26:46;14.38;;;7.47;;
40072;SDS011;25774;52.256;9.356;2022-09-12T06:29:13;15.40;;;7.93;;
40072;SDS011;25774;52.256;9.356;2022-09-12T06:31:40;13.60;;;7.38;;
40072;SDS011;25774;52.256;9.356;2022-09-12T06:34:07;12.02;;;7.07;;
40072;SDS011;25774;52.256;9.356;2022-09-12T06:36:39;13.88;;;7.13;;
40072;SDS011;25774;52.256;9.356;2022-09-12T06:39:08;14.95;;;7.00;;
40072;SDS011;25774;52.256;9.356;2022-09-12T06:41:36;10.52;;;7.00;;
40072;SDS011;25774;52.256;9.356;2022-09-12T06:44:02;15.13;;;6.90;;
40072;SDS011;25774;52.256;9.356;2022-09-12T06:46:28;23.55;;;7.20;;
40072;SDS011;25774;52.256;9.356;2022-09-12T06:48:58;20.23;;;7.60;;
40072;SDS011;25774;52.256;9.356;2022-09-12T06:51:25;13.02;;;7.35;;
40072;SDS011;25774;52.256;9.356;2022-09-12T06:53:53;15.98;;;7.60;;
40072;SDS011;25774;52.256;9.356;2022-09-12T06:56:21;13.70;;;7.85;;
40072;SDS011;25774;52.256;9.356;2022-09-12T06:58:48;13.90;;;7.35;;
40072;SDS011;25774;52.256;9.356;2022-09-12T07:01:18;21.00;;;7.85;;
40072;SDS011;25774;52.256;9.356;2022-09-12T07:03:46;21.40;;;8.52;;
40072;SDS011;25774;52.256;9.356;2022-09-12T07:06:25;13.95;;;7.53;;
40072;SDS011;25774;52.256;9.356;2022-09-12T07:08:59;20.00;;;7.85;;
40072;SDS011;25774;52.256;9.356;2022-09-12T07:11:30;15.02;;;8.27;;
40072;SDS011;25774;52.256;9.356;2022-09-12T07:13:58;15.73;;;8.18;;
40072;SDS011;25774;52.256;9.356;2022-09-12T07:16:25;15.40;;;7.50;;
40072;SDS011;25774;52.256;9.356;2022-09-12T07:18:52;13.57;;;7.75;;
40072;SDS011;25774;52.256;9.356;2022-09-12T07:21:19;14.65;;;8.57;;
40072;SDS011;25774;52.256;9.356;2022-09-12T07:23:45;13.57;;;8.40;;
40072;SDS011;25774;52.256;9.356;2022-09-12T07:26:12;16.75;;;8.75;;
40072;SDS011;25774;52.256;9.356;2022-09-12T07:28:38;14.32;;;7.80;;
40072;SDS011;25774;52.256;9.356;2022-09-12T07:31:08;22.48;;;11.10;;
40072;SDS011;25774;52.256;9.356;2022-09-12T07:33:36;24.58;;;11.07;;
40072;SDS011;25774;52.256;9.356;2022-09-12T07:36:03;19.25;;;10.88;;
40072;SDS011;25774;52.256;9.356;2022-09-12T07:38:30;21.38;;;11.38;;
40072;SDS011;25774;52.256;9.356;2022-09-12T07:40:55;20.77;;;9.98;;
40072;SDS011;25774;52.256;9.356;2022-09-12T07:43:21;20.67;;;10.02;;
40072;SDS011;25774;52.256;9.356;2022-09-12T07:45:47;21.40;;;10.52;;
40072;SDS011;25774;52.256;9.356;2022-09-12T07:48:12;18.20;;;10.27;;
40072;SDS011;25774;52.256;9.356;2022-09-12T07:50:38;25.80;;;10.43;;
40072;SDS011;25774;52.256;9.356;2022-09-12T07:53:05;20.08;;;11.82;;
40072;SDS011;25774;52.256;9.356;2022-09-12T07:55:31;20.83;;;11.48;;
40072;SDS011;25774;52.256;9.356;2022-09-12T07:57:56;22.55;;;11.73;;
40072;SDS011;25774;52.256;9.356;2022-09-12T08:00:22;21.67;;;12.43;;
40072;SDS011;25774;52.256;9.356;2022-09-12T08:02:51;27.13;;;12.57;;
40072;SDS011;25774;52.256;9.356;2022-09-12T08:05:18;23.88;;;11.85;;
40072;SDS011;25774;52.256;9.356;2022-09-12T08:07:44;27.40;;;11.43;;
40072;SDS011;25774;52.256;9.356;2022-09-12T08:10:10;18.30;;;11.18;;
40072;SDS011;25774;52.256;9.356;2022-09-12T08:12:36;21.05;;;11.32;;
40072;SDS011;25774;52.256;9.356;2022-09-12T08:15:01;22.43;;;10.37;;
40072;SDS011;25774;52.256;9.356;2022-09-12T08:17:27;20.83;;;10.45;;
40072;SDS011;25774;52.256;9.356;2022-09-12T08:19:54;20.15;;;10.10;;
40072;SDS011;25774;52.256;9.356;2022-09-12T08:22:20;19.20;;;9.30;;
40072;SDS011;25774;52.256;9.356;2022-09-12T08:27:12;14.18;;;8.98;;
40072;SDS011;25774;52.256;9.356;2022-09-12T08:29:38;16.90;;;8.93;;
40072;SDS011;25774;52.256;9.356;2022-09-12T08:32:04;14.98;;;8.63;;
40072;SDS011;25774;52.256;9.356;2022-09-12T08:34:30;14.85;;;8.57;;
40072;SDS011;25774;52.256;9.356;2022-09-12T08:36:55;13.60;;;7.60;;
40072;SDS011;25774;52.256;9.356;2022-09-12T08:41:47;11.80;;;7.90;;
40072;SDS011;25774;52.256;9.356;2022-09-12T08:49:32;11.23;;;6.43;;
40072;SDS011;25774;52.256;9.356;2022-09-12T08:52:11;10.30;;;5.75;;
40072;SDS011;25774;52.256;9.356;2022-09-12T08:54:41;12.60;;;6.80;;
40072;SDS011;25774;52.256;9.356;2022-09-12T08:57:10;11.23;;;6.80;;
40072;SDS011;25774;52.256;9.356;2022-09-12T08:59:39;10.05;;;6.05;;
40072;SDS011;25774;52.256;9.356;2022-09-12T09:16:50;9.40;;;5.03;;
40072;SDS011;25774;52.256;9.356;2022-09-12T09:19:29;8.80;;;5.10;;
40072;SDS011;25774;52.256;9.356;2022-09-12T09:22:03;9.55;;;5.07;;
40072;SDS011;25774;52.256;9.356;2022-09-12T09:24:40;10.30;;;5.03;;
40072;SDS011;25774;52.256;9.356;2022-09-12T09:27:32;8.98;;;4.72;;
40072;SDS011;25774;52.256;9.356;2022-09-12T09:30:03;11.70;;;4.30;;
40072;SDS011;25774;52.256;9.356;2022-09-12T09:35:16;10.90;;;3.80;;
40072;SDS011;25774;52.256;9.356;2022-09-12T09:43:21;7.47;;;2.83;;
40072;SDS011;25774;52.256;9.356;2022-09-12T09:45:48;3.92;;;2.17;;
40072;SDS011;25774;52.256;9.356;2022-09-12T09:48:20;6.72;;;2.80;;
40072;SDS011;25774;52.256;9.356;2022-09-12T09:50:49;5.10;;;2.45;;
40072;SDS011;25774;52.256;9.356;2022-09-12T09:55:58;4.63;;;2.80;;
40072;SDS011;25774;52.256;9.356;2022-09-12T09:58:34;5.50;;;2.92;;
40072;SDS011;25774;52.256;9.356;2022-09-12T10:01:01;8.88;;;2.60;;
40072;SDS011;25774;52.256;9.356;2022-09-12T10:03:36;6.60;;;3.10;;
40072;SDS011;25774;52.256;9.356;2022-09-12T10:08:43;4.75;;;2.40;;
40072;SDS011;25774;52.256;9.356;2022-09-12T10:16:32;5.97;;;2.20;;
40072;SDS011;25774;52.256;9.356;2022-09-12T10:19:00;6.28;;;2.65;;
40072;SDS011;25774;52.256;9.356;2022-09-12T10:21:28;8.63;;;2.80;;
40072;SDS011;25774;52.256;9.356;2022-09-12T10:26:46;6.80;;;2.78;;
40072;SDS011;25774;52.256;9.356;2022-09-12T10:29:32;5.32;;;2.58;;
40072;SDS011;25774;52.256;9.356;2022-09-12T10:32:05;6.90;;;1.92;;
40072;SDS011;25774;52.256;9.356;2022-09-12T10:37:04;4.20;;;2.08;;
40072;SDS011;25774;52.256;9.356;2022-09-12T10:39:31;4.13;;;2.03;;
40072;SDS011;25774;52.256;9.356;2022-09-12T10:42:00;7.75;;;2.55;;
40072;SDS011;25774;52.256;9.356;2022-09-12T10:44:29;5.40;;;2.33;;
40072;SDS011;25774;52.256;9.356;2022-09-12T10:46:56;8.40;;;1.83;;
40072;SDS011;25774;52.256;9.356;2022-09-12T10:49:24;6.15;;;2.80;;
40072;SDS011;25774;52.256;9.356;2022-09-12T10:51:55;5.40;;;2.35;;
40072;SDS011;25774;52.256;9.356;2022-09-12T10:54:24;3.97;;;2.25;;
40072;SDS011;25774;52.256;9.356;2022-09-12T11:02:44;5.43;;;2.25;;
40072;SDS011;25774;52.256;9.356;2022-09-12T11:05:26;7.55;;;2.80;;
40072;SDS011;25774;52.256;9.356;2022-09-12T11:13:29;4.35;;;2.30;;
40072;SDS011;25774;52.256;9.356;2022-09-12T11:18:55;4.32;;;1.85;;
40072;SDS011;25774;52.256;9.356;2022-09-12T11:26:59;3.35;;;1.40;;
40072;SDS011;25774;52.256;9.356;2022-09-12T11:39:58;4.78;;;2.63;;
40072;SDS011;25774;52.256;9.356;2022-09-12T11:42:34;3.80;;;2.47;;
40072;SDS011;25774;52.256;9.356;2022-09-12T11:45:11;5.18;;;2.25;;
40072;SDS011;25774;52.256;9.356;2022-09-12T11:47:40;6.05;;;2.72;;
40072;SDS011;25774;52.256;9.356;2022-09-12T11:50:19;3.88;;;2.15;;
40072;SDS011;25774;52.256;9.356;2022-09-12T11:52:52;7.07;;;2.42;;
40072;SDS011;25774;52.256;9.356;2022-09-12T11:55:28;7.07;;;2.15;;
40072;SDS011;25774;52.256;9.356;2022-09-12T11:58:01;3.25;;;1.75;;
40072;SDS011;25774;52.256;9.356;2022-09-12T12:05:52;4.57;;;1.88;;
40072;SDS011;25774;52.256;9.356;2022-09-12T12:08:21;4.25;;;2.03;;
40072;SDS011;25774;52.256;9.356;2022-09-12T12:15:50;6.00;;;1.95;;
40072;SDS011;25774;52.256;9.356;2022-09-12T12:18:21;3.35;;;1.65;;
40072;SDS011;25774;52.256;9.356;2022-09-12T12:20:51;4.28;;;1.80;;
40072;SDS011;25774;52.256;9.356;2022-09-12T12:23:26;10.07;;;2.38;;
40072;SDS011;25774;52.256;9.356;2022-09-12T12:26:00;4.32;;;1.75;;
40072;SDS011;25774;52.256;9.356;2022-09-12T12:31:09;5.50;;;1.80;;
40072;SDS011;25774;52.256;9.356;2022-09-12T12:36:06;6.28;;;1.85;;
40072;SDS011;25774;52.256;9.356;2022-09-12T12:38:36;4.85;;;2.13;;
40072;SDS011;25774;52.256;9.356;2022-09-12T12:43:41;5.13;;;1.67;;
40072;SDS011;25774;52.256;9.356;2022-09-12T12:46:09;4.55;;;1.55;;
40072;SDS011;25774;52.256;9.356;2022-09-12T12:48:47;4.15;;;1.85;;
40072;SDS011;25774;52.256;9.356;2022-09-12T12:51:24;5.90;;;1.90;;
40072;SDS011;25774;52.256;9.356;2022-09-12T12:53:53;2.58;;;1.38;;
40072;SDS011;25774;52.256;9.356;2022-09-12T12:56:38;3.72;;;1.83;;
40072;SDS011;25774;52.256;9.356;2022-09-12T12:59:21;4.32;;;1.90;;
40072;SDS011;25774;52.256;9.356;2022-09-12T13:01:49;3.10;;;1.67;;
40072;SDS011;25774;52.256;9.356;2022-09-12T13:04:19;3.33;;;1.95;;
40072;SDS011;25774;52.256;9.356;2022-09-12T13:06:56;10.95;;;1.75;;
40072;SDS011;25774;52.256;9.356;2022-09-12T13:12:04;4.47;;;1.60;;
40072;SDS011;25774;52.256;9.356;2022-09-12T13:22:46;3.97;;;1.65;;
40072;SDS011;25774;52.256;9.356;2022-09-12T13:30:32;3.85;;;1.17;;
40072;SDS011;25774;52.256;9.356;2022-09-12T13:33:03;5.25;;;1.90;;
40072;SDS011;25774;52.256;9.356;2022-09-12T13:43:54;8.52;;;1.70;;
40072;SDS011;25774;52.256;9.356;2022-09-12T13:48:51;2.38;;;1.35;;
40072;SDS011;25774;52.256;9.356;2022-09-12T13:53:49;2.20;;;1.20;;
40072;SDS011;25774;52.256;9.356;2022-09-12T13:56:18;2.38;;;1.27;;
40072;SDS011;25774;52.256;9.356;2022-09-12T13:58:52;3.40;;;1.30;;
40072;SDS011;25774;52.256;9.356;2022-09-12T14:01:44;10.80;;;1.50;;
40072;SDS011;25774;52.256;9.356;2022-09-12T14:09:58;4.27;;;1.33;;
40072;SDS011;25774;52.256;9.356;2022-09-12T14:12:26;4.45;;;1.45;;
40072;SDS011;25774;52.256;9.356;2022-09-12T14:14:55;4.95;;;1.30;;
40072;SDS011;25774;52.256;9.356;2022-09-12T14:17:30;4.03;;;1.70;;
40072;SDS011;25774;52.256;9.356;2022-09-12T14:20:06;5.55;;;1.33;;
40072;SDS011;25774;52.256;9.356;2022-09-12T14:22:39;6.68;;;1.70;;
40072;SDS011;25774;52.256;9.356;2022-09-12T14:25:05;3.65;;;1.70;;
40072;SDS011;25774;52.256;9.356;2022-09-12T14:27:40;2.60;;;1.40;;
40072;SDS011;25774;52.256;9.356;2022-09-12T14:30:23;2.53;;;1.10;;
40072;SDS011;25774;52.256;9.356;2022-09-12T14:35:28;2.35;;;1.33;;
40072;SDS011;25774;52.256;9.356;2022-09-12T14:40:21;4.68;;;1.60;;
40072;SDS011;25774;52.256;9.356;2022-09-12T14:42:48;3.58;;;1.20;;
40072;SDS011;25774;52.256;9.356;2022-09-12T14:45:23;3.65;;;1.55;;
40072;SDS011;25774;52.256;9.356;2022-09-12T14:47:52;3.25;;;1.30;;
40072;SDS011;25774;52.256;9.356;2022-09-12T14:53:00;2.30;;;1.10;;
40072;SDS011;25774;52.256;9.356;2022-09-12T14:55:31;5.35;;;1.48;;
40072;SDS011;25774;52.256;9.356;2022-09-12T14:58:11;2.65;;;1.42;;
40072;SDS011;25774;52.256;9.356;2022-09-12T15:00:51;4.85;;;1.35;;
40072;SDS011;25774;52.256;9.356;2022-09-12T15:03:26;4.90;;;1.58;;
40072;SDS011;25774;52.256;9.356;2022-09-12T15:06:02;3.13;;;1.63;;
40072;SDS011;25774;52.256;9.356;2022-09-12T15:08:30;3.35;;;1.30;;
40072;SDS011;25774;52.256;9.356;2022-09-12T15:10:57;6.15;;;1.85;;
40072;SDS011;25774;52.256;9.356;2022-09-12T15:13:24;2.80;;;1.60;;
40072;SDS011;25774;52.256;9.356;2022-09-12T15:15:54;3.90;;;1.55;;
40072;SDS011;25774;52.256;9.356;2022-09-12T15:18:21;4.50;;;1.35;;
40072;SDS011;25774;52.256;9.356;2022-09-12T15:20:49;2.83;;;1.45;;
40072;SDS011;25774;52.256;9.356;2022-09-12T15:23:31;5.15;;;1.92;;
40072;SDS011;25774;52.256;9.356;2022-09-12T15:26:04;4.78;;;1.50;;
40072;SDS011;25774;52.256;9.356;2022-09-12T15:28:30;9.57;;;1.85;;
40072;SDS011;25774;52.256;9.356;2022-09-12T15:30:58;4.03;;;1.52;;
40072;SDS011;25774;52.256;9.356;2022-09-12T15:33:28;7.82;;;1.90;;
40072;SDS011;25774;52.256;9.356;2022-09-12T15:38:19;3.07;;;1.57;;
40072;SDS011;25774;52.256;9.356;2022-09-12T15:43:16;2.97;;;1.50;;
40072;SDS011;25774;52.256;9.356;2022-09-12T15:48:08;9.57;;;1.52;;
40072;SDS011;25774;52.256;9.356;2022-09-12T15:53:01;4.60;;;1.60;;
40072;SDS011;25774;52.256;9.356;2022-09-12T15:57:54;4.82;;;2.20;;
40072;SDS011;25774;52.256;9.356;2022-09-12T16:02:45;3.50;;;1.63;;
40072;SDS011;25774;52.256;9.356;2022-09-12T16:05:14;2.67;;;1.60;;
40072;SDS011;25774;52.256;9.356;2022-09-12T16:07:42;3.20;;;1.77;;
40072;SDS011;25774;52.256;9.356;2022-09-12T16:10:12;6.78;;;1.83;;
40072;SDS011;25774;52.256;9.356;2022-09-12T16:12:39;8.85;;;1.75;;
40072;SDS011;25774;52.256;9.356;2022-09-12T16:17:31;5.75;;;1.83;;
40072;SDS011;25774;52.256;9.356;2022-09-12T16:22:21;6.80;;;1.90;;
40072;SDS011;25774;52.256;9.356;2022-09-12T16:27:12;5.87;;;1.97;;
40072;SDS011;25774;52.256;9.356;2022-09-12T16:29:38;9.48;;;1.60;;
40072;SDS011;25774;52.256;9.356;2022-09-12T16:32:03;8.30;;;1.95;;
40072;SDS011;25774;52.256;9.356;2022-09-12T16:36:54;11.98;;;1.83;;
40072;SDS011;25774;52.256;9.356;2022-09-12T16:41:44;3.72;;;1.50;;
40072;SDS011;25774;52.256;9.356;2022-09-12T16:46:35;5.93;;;1.50;;
40072;SDS011;25774;52.256;9.356;2022-09-12T16:49:01;7.72;;;2.03;;
40072;SDS011;25774;52.256;9.356;2022-09-12T16:51:30;5.80;;;1.50;;
40072;SDS011;25774;52.256;9.356;2022-09-12T16:53:57;9.20;;;2.03;;
40072;SDS011;25774;52.256;9.356;2022-09-12T16:56:23;19.25;;;3.55;;
40072;SDS011;25774;52.256;9.356;2022-09-12T16:58:49;15.80;;;2.40;;
40072;SDS011;25774;52.256;9.356;2022-09-12T17:03:41;8.90;;;1.57;;
40072;SDS011;25774;52.256;9.356;2022-09-12T17:06:08;11.20;;;1.98;;
40072;SDS011;25774;52.256;9.356;2022-09-12T17:08:38;7.18;;;1.55;;
40072;SDS011;25774;52.256;9.356;2022-09-12T17:11:06;7.85;;;1.60;;
40072;SDS011;25774;52.256;9.356;2022-09-12T17:13:33;14.98;;;1.90;;
40072;SDS011;25774;52.256;9.356;2022-09-12T17:15:59;3.78;;;1.55;;
40072;SDS011;25774;52.256;9.356;2022-09-12T17:18:29;11.00;;;2.13;;
40072;SDS011;25774;52.256;9.356;2022-09-12T17:20:55;14.27;;;2.33;;
40072;SDS011;25774;52.256;9.356;2022-09-12T17:23:20;7.07;;;1.90;;
40072;SDS011;25774;52.256;9.356;2022-09-12T17:25:49;17.30;;;1.88;;
40072;SDS011;25774;52.256;9.356;2022-09-12T17:28:19;2.97;;;1.40;;
40072;SDS011;25774;52.256;9.356;2022-09-12T17:30:44;9.60;;;2.10;;
40072;SDS011;25774;52.256;9.356;2022-09-12T17:33:10;3.67;;;1.85;;
40072;SDS011;25774;52.256;9.356;2022-09-12T17:38:03;14.47;;;2.13;;
40072;SDS011;25774;52.256;9.356;2022-09-12T17:40:29;6.25;;;2.10;;
40072;SDS011;25774;52.256;9.356;2022-09-12T17:45:22;6.60;;;1.48;;
40072;SDS011;25774;52.256;9.356;2022-09-12T17:47:47;8.55;;;1.88;;
40072;SDS011;25774;52.256;9.356;2022-09-12T17:50:13;6.63;;;1.75;;
40072;SDS011;25774;52.256;9.356;2022-09-12T17:52:41;11.50;;;2.15;;
40072;SDS011;25774;52.256;9.356;2022-09-12T17:55:07;14.40;;;1.70;;
40072;SDS011;25774;52.256;9.356;2022-09-12T17:57:33;9.30;;;2.30;;
40072;SDS011;25774;52.256;9.356;2022-09-12T17:59:58;7.10;;;1.75;;
40072;SDS011;25774;52.256;9.356;2022-09-12T18:02:24;8.60;;;1.90;;
40072;SDS011;25774;52.256;9.356;2022-09-12T18:04:49;8.63;;;1.63;;
40072;SDS011;25774;52.256;9.356;2022-09-12T18:07:15;9.10;;;2.35;;
40072;SDS011;25774;52.256;9.356;2022-09-12T18:09:44;6.13;;;2.20;;
40072;SDS011;25774;52.256;9.356;2022-09-12T18:12:12;4.00;;;2.13;;
40072;SDS011;25774;52.256;9.356;2022-09-12T18:14:38;5.07;;;2.47;;
40072;SDS011;25774;52.256;9.356;2022-09-12T18:17:04;3.78;;;2.17;;
40072;SDS011;25774;52.256;9.356;2022-09-12T18:19:32;4.90;;;2.10;;
40072;SDS011;25774;52.256;9.356;2022-09-12T18:21:59;4.57;;;1.98;;
40072;SDS011;25774;52.256;9.356;2022-09-12T18:26:50;3.72;;;1.88;;
40072;SDS011;25774;52.256;9.356;2022-09-12T18:29:16;3.83;;;2.22;;
40072;SDS011;25774;52.256;9.356;2022-09-12T18:31:43;4.45;;;1.98;;
40072;SDS011;25774;52.256;9.356;2022-09-12T18:34:10;5.68;;;2.20;;
40072;SDS011;25774;52.256;9.356;2022-09-12T18:36:38;9.38;;;2.50;;
40072;SDS011;25774;52.256;9.356;2022-09-12T18:39:11;4.63;;;2.30;;
40072;SDS011;25774;52.256;9.356;2022-09-12T18:41:37;6.85;;;2.42;;
40072;SDS011;25774;52.256;9.356;2022-09-12T18:44:03;8.60;;;2.13;;